sensor_id;sensor_type;location;lat;lon;timestamp;temperature;humidity
6462;DHT22;3264;42.862;25.098;2023-03-01T00:01:54;4.90;99.90
6462;DHT22;3264;42.862;25.098;2023-03-01T00:04:23;4.90;99.90
6462;DHT22;3264;42.862;25.098;2023-03-01T00:06:52;5.00;99.90
6462;DHT22;3264;42.862;25.098;2023-03-01T00:09:21;5.00;99.90
6462;DHT22;3264;42.862;25.098;2023-03-01T00:11:52;5.00;99.90
6462;DHT22;3264;42.862;25.098;2023-03-01T00:14:21;5.00;99.90
6462;DHT22;3264;42.862;25.098;2023-03-01T00:16:51;5.00;99.90
6462;DHT22;3264;42.862;25.098;2023-03-01T00:19:21;5.00;99.90
6462;DHT22;3264;42.862;25.098;2023-03-01T00:21:50;5.10;99.90
6462;DHT22;3264;42.862;25.098;2023-03-01T00:24:19;5.10;99.90
6462;DHT22;3264;42.862;25.098;2023-03-01T00:26:48;5.10;99.90
6462;DHT22;3264;42.862;25.098;2023-03-01T00:29:22;5.00;99.90
6462;DHT22;3264;42.862;25.098;2023-03-01T00:31:51;4.90;99.90
6462;DHT22;3264;42.862;25.098;2023-03-01T00:34:20;4.80;99.90
6462;DHT22;3264;42.862;25.098;2023-03-01T00:36:49;4.90;99.90
6462;DHT22;3264;42.862;25.098;2023-03-01T00:39:19;5.00;99.90
6462;DHT22;3264;42.862;25.098;2023-03-01T00:41:48;4.90;99.90
6462;DHT22;3264;42.862;25.098;2023-03-01T00:44:17;4.90;99.90
6462;DHT22;3264;42.862;25.098;2023-03-01T00:46:49;4.90;99.90
6462;DHT22;3264;42.862;25.098;2023-03-01T00:49:17;4.80;99.90
6462;DHT22;3264;42.862;25.098;2023-03-01T00:51:47;4.70;99.90
6462;DHT22;3264;42.862;25.098;2023-03-01T00:54:16;4.70;99.90
6462;DHT22;3264;42.862;25.098;2023-03-01T00:56:44;4.60;99.90
6462;DHT22;3264;42.862;25.098;2023-03-01T00:59:13;4.70;99.90
6462;DHT22;3264;42.862;25.098;2023-03-01T01:01:42;4.80;99.90
6462;DHT22;3264;42.862;25.098;2023-03-01T01:04:14;4.90;99.90
6462;DHT22;3264;42.862;25.098;2023-03-01T01:06:45;4.90;99.90
6462;DHT22;3264;42.862;25.098;2023-03-01T01:09:16;4.90;99.90
6462;DHT22;3264;42.862;25.098;2023-03-01T01:11:47;5.00;99.90
6462;DHT22;3264;42.862;25.098;2023-03-01T01:14:18;5.00;99.90
6462;DHT22;3264;42.862;25.098;2023-03-01T01:16:48;5.00;99.90
6462;DHT22;3264;42.862;25.098;2023-03-01T01:19:18;4.90;99.90
6462;DHT22;3264;42.862;25.098;2023-03-01T01:21:47;4.80;99.90
6462;DHT22;3264;42.862;25.098;2023-03-01T01:24:17;4.90;99.90
6462;DHT22;3264;42.862;25.098;2023-03-01T01:26:46;4.90;99.90
6462;DHT22;3264;42.862;25.098;2023-03-01T01:29:16;4.90;99.90
6462;DHT22;3264;42.862;25.098;2023-03-01T01:31:45;4.90;99.90
6462;DHT22;3264;42.862;25.098;2023-03-01T01:34:17;4.80;99.90
6462;DHT22;3264;42.862;25.098;2023-03-01T01:36:49;4.80;99.90
6462;DHT22;3264;42.862;25.098;2023-03-01T01:39:18;4.80;99.90
6462;DHT22;3264;42.862;25.098;2023-03-01T01:41:47;4.80;99.90
6462;DHT22;3264;42.862;25.098;2023-03-01T01:44:19;4.90;99.90
6462;DHT22;3264;42.862;25.098;2023-03-01T01:46:53;5.00;99.90
6462;DHT22;3264;42.862;25.098;2023-03-01T01:49:32;5.00;99.90
6462;DHT22;3264;42.862;25.098;2023-03-01T01:52:09;5.10;99.90
6462;DHT22;3264;42.862;25.098;2023-03-01T01:54:43;5.10;99.90
6462;DHT22;3264;42.862;25.098;2023-03-01T01:57:19;5.10;99.90
6462;DHT22;3264;42.862;25.098;2023-03-01T01:59:53;5.00;99.90
6462;DHT22;3264;42.862;25.098;2023-03-01T02:02:23;5.10;99.90
6462;DHT22;3264;42.862;25.098;2023-03-01T02:05:02;5.10;99.90
6462;DHT22;3264;42.862;25.098;2023-03-01T02:07:32;4.90;99.90
6462;DHT22;3264;42.862;25.098;2023-03-01T02:10:02;4.90;99.90
6462;DHT22;3264;42.862;25.098;2023-03-01T02:12:31;5.00;99.90
6462;DHT22;3264;42.862;25.098;2023-03-01T02:15:00;5.10;99.90
6462;DHT22;3264;42.862;25.098;2023-03-01T02:17:29;5.10;99.90
6462;DHT22;3264;42.862;25.098;2023-03-01T02:20:07;5.10;99.90
6462;DHT22;3264;42.862;25.098;2023-03-01T02:22:40;5.10;99.90
6462;DHT22;3264;42.862;25.098;2023-03-01T02:25:27;5.00;99.90
6462;DHT22;3264;42.862;25.098;2023-03-01T02:27:58;5.00;99.90
6462;DHT22;3264;42.862;25.098;2023-03-01T02:30:33;5.00;99.90
6462;DHT22;3264;42.862;25.098;2023-03-01T02:33:03;4.90;99.90
6462;DHT22;3264;42.862;25.098;2023-03-01T02:35:38;4.90;99.90
6462;DHT22;3264;42.862;25.098;2023-03-01T02:38:08;5.00;99.90
6462;DHT22;3264;42.862;25.098;2023-03-01T02:40:38;5.10;99.90
6462;DHT22;3264;42.862;25.098;2023-03-01T02:43:09;5.00;99.90
6462;DHT22;3264;42.862;25.098;2023-03-01T02:45:47;4.90;99.90
6462;DHT22;3264;42.862;25.098;2023-03-01T02:48:17;4.90;99.90
6462;DHT22;3264;42.862;25.098;2023-03-01T02:50:54;4.90;99.90
6462;DHT22;3264;42.862;25.098;2023-03-01T02:53:31;4.90;99.90
6462;DHT22;3264;42.862;25.098;2023-03-01T02:56:01;4.80;99.90
6462;DHT22;3264;42.862;25.098;2023-03-01T02:58:30;4.80;99.90
6462;DHT22;3264;42.862;25.098;2023-03-01T03:01:07;4.70;99.90
6462;DHT22;3264;42.862;25.098;2023-03-01T03:03:37;4.80;99.90
6462;DHT22;3264;42.862;25.098;2023-03-01T03:06:07;4.90;99.90
6462;DHT22;3264;42.862;25.098;2023-03-01T03:08:36;4.90;99.90
6462;DHT22;3264;42.862;25.098;2023-03-01T03:11:05;4.80;99.90
6462;DHT22;3264;42.862;25.098;2023-03-01T03:13:33;4.80;99.90
6462;DHT22;3264;42.862;25.098;2023-03-01T03:16:08;4.80;99.90
6462;DHT22;3264;42.862;25.098;2023-03-01T03:18:37;4.80;99.90
6462;DHT22;3264;42.862;25.098;2023-03-01T03:21:09;4.80;99.90
6462;DHT22;3264;42.862;25.098;2023-03-01T03:23:38;4.80;99.90
6462;DHT22;3264;42.862;25.098;2023-03-01T03:26:10;4.80;99.90
6462;DHT22;3264;42.862;25.098;2023-03-01T03:28:42;4.80;99.90
6462;DHT22;3264;42.862;25.098;2023-03-01T03:31:12;4.70;99.90
6462;DHT22;3264;42.862;25.098;2023-03-01T03:33:41;4.70;99.90
6462;DHT22;3264;42.862;25.098;2023-03-01T03:36:15;4.70;99.90
6462;DHT22;3264;42.862;25.098;2023-03-01T03:38:45;4.70;99.90
6462;DHT22;3264;42.862;25.098;2023-03-01T03:41:13;4.70;99.90
6462;DHT22;3264;42.862;25.098;2023-03-01T03:43:42;4.70;99.90
6462;DHT22;3264;42.862;25.098;2023-03-01T03:46:13;4.80;99.90
6462;DHT22;3264;42.862;25.098;2023-03-01T03:48:44;4.90;99.90
6462;DHT22;3264;42.862;25.098;2023-03-01T03:51:14;4.90;99.90
6462;DHT22;3264;42.862;25.098;2023-03-01T03:53:44;4.80;99.90
6462;DHT22;3264;42.862;25.098;2023-03-01T03:56:14;4.90;99.90
6462;DHT22;3264;42.862;25.098;2023-03-01T03:58:43;4.80;99.90
6462;DHT22;3264;42.862;25.098;2023-03-01T04:01:14;4.80;99.90
6462;DHT22;3264;42.862;25.098;2023-03-01T04:03:42;4.80;99.90
6462;DHT22;3264;42.862;25.098;2023-03-01T04:06:14;4.70;99.90
6462;DHT22;3264;42.862;25.098;2023-03-01T04:08:43;4.70;99.90
6462;DHT22;3264;42.862;25.098;2023-03-01T04:11:13;4.80;99.90
6462;DHT22;3264;42.862;25.098;2023-03-01T04:13:58;4.80;99.90
6462;DHT22;3264;42.862;25.098;2023-03-01T04:16:27;4.80;99.90
6462;DHT22;3264;42.862;25.098;2023-03-01T04:18:56;4.80;99.90
6462;DHT22;3264;42.862;25.098;2023-03-01T04:21:25;4.90;99.90
6462;DHT22;3264;42.862;25.098;2023-03-01T04:23:54;4.80;99.90
6462;DHT22;3264;42.862;25.098;2023-03-01T04:26:22;4.80;99.90
6462;DHT22;3264;42.862;25.098;2023-03-01T04:28:52;4.70;99.90
6462;DHT22;3264;42.862;25.098;2023-03-01T04:31:21;4.70;99.90
6462;DHT22;3264;42.862;25.098;2023-03-01T04:33:54;4.80;99.90
6462;DHT22;3264;42.862;25.098;2023-03-01T04:36:23;4.90;99.90
6462;DHT22;3264;42.862;25.098;2023-03-01T04:38:52;4.70;99.90
6462;DHT22;3264;42.862;25.098;2023-03-01T04:41:23;4.70;99.90
6462;DHT22;3264;42.862;25.098;2023-03-01T04:43:52;4.70;99.90
6462;DHT22;3264;42.862;25.098;2023-03-01T04:46:22;4.80;99.90
6462;DHT22;3264;42.862;25.098;2023-03-01T04:48:52;4.80;99.90
6462;DHT22;3264;42.862;25.098;2023-03-01T04:51:21;4.80;99.90
6462;DHT22;3264;42.862;25.098;2023-03-01T04:53:49;4.80;99.90
6462;DHT22;3264;42.862;25.098;2023-03-01T04:56:19;4.70;99.90
6462;DHT22;3264;42.862;25.098;2023-03-01T04:58:52;4.70;99.90
6462;DHT22;3264;42.862;25.098;2023-03-01T05:01:22;4.60;99.90
6462;DHT22;3264;42.862;25.098;2023-03-01T05:03:52;4.60;99.90
6462;DHT22;3264;42.862;25.098;2023-03-01T05:06:21;4.60;99.90
6462;DHT22;3264;42.862;25.098;2023-03-01T05:08:50;4.80;99.90
6462;DHT22;3264;42.862;25.098;2023-03-01T05:11:19;4.80;99.90
6462;DHT22;3264;42.862;25.098;2023-03-01T05:13:48;4.60;99.90
6462;DHT22;3264;42.862;25.098;2023-03-01T05:16:22;4.70;99.90
6462;DHT22;3264;42.862;25.098;2023-03-01T05:18:52;4.70;99.90
6462;DHT22;3264;42.862;25.098;2023-03-01T05:21:23;4.80;99.90
6462;DHT22;3264;42.862;25.098;2023-03-01T05:23:52;4.60;99.90
6462;DHT22;3264;42.862;25.098;2023-03-01T05:26:21;4.70;99.90
6462;DHT22;3264;42.862;25.098;2023-03-01T05:28:56;4.70;99.90
6462;DHT22;3264;42.862;25.098;2023-03-01T05:31:25;4.70;99.90
6462;DHT22;3264;42.862;25.098;2023-03-01T05:33:56;4.60;99.90
6462;DHT22;3264;42.862;25.098;2023-03-01T05:36:25;4.50;99.90
6462;DHT22;3264;42.862;25.098;2023-03-01T05:38:54;4.50;99.90
6462;DHT22;3264;42.862;25.098;2023-03-01T05:41:24;4.60;99.90
6462;DHT22;3264;42.862;25.098;2023-03-01T05:43:53;4.60;99.90
6462;DHT22;3264;42.862;25.098;2023-03-01T05:46:22;4.70;99.90
6462;DHT22;3264;42.862;25.098;2023-03-01T05:48:52;4.60;99.90
6462;DHT22;3264;42.862;25.098;2023-03-01T05:51:22;4.60;99.90
6462;DHT22;3264;42.862;25.098;2023-03-01T05:53:51;4.50;99.90
6462;DHT22;3264;42.862;25.098;2023-03-01T05:56:20;4.40;99.90
6462;DHT22;3264;42.862;25.098;2023-03-01T05:58:49;4.50;99.90
6462;DHT22;3264;42.862;25.098;2023-03-01T06:01:19;4.50;99.90
6462;DHT22;3264;42.862;25.098;2023-03-01T06:03:48;4.60;99.90
6462;DHT22;3264;42.862;25.098;2023-03-01T06:06:17;4.70;99.90
6462;DHT22;3264;42.862;25.098;2023-03-01T06:08:48;4.60;99.90
6462;DHT22;3264;42.862;25.098;2023-03-01T06:11:17;4.60;99.90
6462;DHT22;3264;42.862;25.098;2023-03-01T06:13:47;4.70;99.90
6462;DHT22;3264;42.862;25.098;2023-03-01T06:16:16;4.60;99.90
6462;DHT22;3264;42.862;25.098;2023-03-01T06:18:45;4.40;99.90
6462;DHT22;3264;42.862;25.098;2023-03-01T06:21:14;4.40;99.90
6462;DHT22;3264;42.862;25.098;2023-03-01T06:23:43;4.50;99.90
6462;DHT22;3264;42.862;25.098;2023-03-01T06:26:13;4.60;99.90
6462;DHT22;3264;42.862;25.098;2023-03-01T06:28:43;4.60;99.90
6462;DHT22;3264;42.862;25.098;2023-03-01T06:31:13;4.60;99.90
6462;DHT22;3264;42.862;25.098;2023-03-01T06:33:43;4.80;99.90
6462;DHT22;3264;42.862;25.098;2023-03-01T06:36:12;4.80;99.90
6462;DHT22;3264;42.862;25.098;2023-03-01T06:38:41;4.90;99.90
6462;DHT22;3264;42.862;25.098;2023-03-01T06:41:11;5.00;99.90
6462;DHT22;3264;42.862;25.098;2023-03-01T06:43:41;5.10;99.90
6462;DHT22;3264;42.862;25.098;2023-03-01T06:46:10;4.90;99.90
6462;DHT22;3264;42.862;25.098;2023-03-01T06:48:39;4.80;99.90
6462;DHT22;3264;42.862;25.098;2023-03-01T06:51:09;5.00;99.90
6462;DHT22;3264;42.862;25.098;2023-03-01T06:53:38;5.00;99.90
6462;DHT22;3264;42.862;25.098;2023-03-01T06:56:07;5.00;99.90
6462;DHT22;3264;42.862;25.098;2023-03-01T06:58:36;4.90;99.90
6462;DHT22;3264;42.862;25.098;2023-03-01T07:01:08;4.90;99.90
6462;DHT22;3264;42.862;25.098;2023-03-01T07:03:37;5.00;99.90
6462;DHT22;3264;42.862;25.098;2023-03-01T07:06:06;5.10;99.90
6462;DHT22;3264;42.862;25.098;2023-03-01T07:08:36;5.10;99.90
6462;DHT22;3264;42.862;25.098;2023-03-01T07:11:06;5.10;99.90
6462;DHT22;3264;42.862;25.098;2023-03-01T07:13:36;5.00;99.90
6462;DHT22;3264;42.862;25.098;2023-03-01T07:16:07;5.00;99.90
6462;DHT22;3264;42.862;25.098;2023-03-01T07:18:37;5.00;99.90
6462;DHT22;3264;42.862;25.098;2023-03-01T07:21:06;5.10;99.90
6462;DHT22;3264;42.862;25.098;2023-03-01T07:23:35;5.00;99.90
6462;DHT22;3264;42.862;25.098;2023-03-01T07:26:05;5.00;99.90
6462;DHT22;3264;42.862;25.098;2023-03-01T07:28:34;5.10;99.90
6462;DHT22;3264;42.862;25.098;2023-03-01T07:31:08;5.00;99.90
6462;DHT22;3264;42.862;25.098;2023-03-01T07:33:37;5.00;99.90
6462;DHT22;3264;42.862;25.098;2023-03-01T07:36:07;5.00;99.90
6462;DHT22;3264;42.862;25.098;2023-03-01T07:38:36;5.00;99.90
6462;DHT22;3264;42.862;25.098;2023-03-01T07:41:05;4.90;99.90
6462;DHT22;3264;42.862;25.098;2023-03-01T07:43:34;4.90;99.90
6462;DHT22;3264;42.862;25.098;2023-03-01T07:46:04;4.90;99.90
6462;DHT22;3264;42.862;25.098;2023-03-01T07:48:34;5.00;99.90
6462;DHT22;3264;42.862;25.098;2023-03-01T07:51:05;5.00;99.90
6462;DHT22;3264;42.862;25.098;2023-03-01T07:53:34;4.90;99.90
6462;DHT22;3264;42.862;25.098;2023-03-01T07:56:07;4.90;99.90
6462;DHT22;3264;42.862;25.098;2023-03-01T07:58:38;4.90;99.90
6462;DHT22;3264;42.862;25.098;2023-03-01T08:01:10;5.00;99.90
6462;DHT22;3264;42.862;25.098;2023-03-01T08:03:41;5.20;99.90
6462;DHT22;3264;42.862;25.098;2023-03-01T08:06:13;5.40;99.90
6462;DHT22;3264;42.862;25.098;2023-03-01T08:08:43;5.20;99.90
6462;DHT22;3264;42.862;25.098;2023-03-01T08:11:12;5.30;99.90
6462;DHT22;3264;42.862;25.098;2023-03-01T08:13:42;5.30;99.90
6462;DHT22;3264;42.862;25.098;2023-03-01T08:16:13;5.30;99.90
6462;DHT22;3264;42.862;25.098;2023-03-01T08:18:43;5.50;99.90
6462;DHT22;3264;42.862;25.098;2023-03-01T08:21:15;5.30;99.90
6462;DHT22;3264;42.862;25.098;2023-03-01T08:23:44;5.40;99.90
6462;DHT22;3264;42.862;25.098;2023-03-01T08:26:15;5.40;99.90
6462;DHT22;3264;42.862;25.098;2023-03-01T08:28:44;5.40;99.90
6462;DHT22;3264;42.862;25.098;2023-03-01T08:31:18;5.60;99.90
6462;DHT22;3264;42.862;25.098;2023-03-01T08:33:51;5.40;99.90
6462;DHT22;3264;42.862;25.098;2023-03-01T08:36:24;5.50;99.90
6462;DHT22;3264;42.862;25.098;2023-03-01T08:38:54;5.70;99.90
6462;DHT22;3264;42.862;25.098;2023-03-01T08:41:23;5.80;99.90
6462;DHT22;3264;42.862;25.098;2023-03-01T08:43:52;5.80;99.90
6462;DHT22;3264;42.862;25.098;2023-03-01T08:46:26;5.70;99.90
6462;DHT22;3264;42.862;25.098;2023-03-01T08:48:57;5.70;99.90
6462;DHT22;3264;42.862;25.098;2023-03-01T08:51:26;5.90;99.90
6462;DHT22;3264;42.862;25.098;2023-03-01T08:53:56;5.70;99.90
6462;DHT22;3264;42.862;25.098;2023-03-01T08:56:25;5.80;99.90
6462;DHT22;3264;42.862;25.098;2023-03-01T08:58:55;5.90;99.90
6462;DHT22;3264;42.862;25.098;2023-03-01T09:01:24;5.80;99.90
6462;DHT22;3264;42.862;25.098;2023-03-01T09:03:53;5.90;99.90
6462;DHT22;3264;42.862;25.098;2023-03-01T09:06:24;5.90;99.90
6462;DHT22;3264;42.862;25.098;2023-03-01T09:08:53;5.90;99.90
6462;DHT22;3264;42.862;25.098;2023-03-01T09:11:22;5.70;99.90
6462;DHT22;3264;42.862;25.098;2023-03-01T09:13:51;5.70;99.90
6462;DHT22;3264;42.862;25.098;2023-03-01T09:16:22;5.70;99.90
6462;DHT22;3264;42.862;25.098;2023-03-01T09:18:53;5.80;99.90
6462;DHT22;3264;42.862;25.098;2023-03-01T09:21:24;5.70;99.90
6462;DHT22;3264;42.862;25.098;2023-03-01T09:23:53;5.70;99.90
6462;DHT22;3264;42.862;25.098;2023-03-01T09:26:24;5.70;99.90
6462;DHT22;3264;42.862;25.098;2023-03-01T09:28:55;5.70;99.90
6462;DHT22;3264;42.862;25.098;2023-03-01T09:31:25;5.80;99.90
6462;DHT22;3264;42.862;25.098;2023-03-01T09:33:54;5.90;99.90
6462;DHT22;3264;42.862;25.098;2023-03-01T09:36:25;5.90;99.90
6462;DHT22;3264;42.862;25.098;2023-03-01T09:38:54;5.80;99.90
6462;DHT22;3264;42.862;25.098;2023-03-01T09:44:29;5.80;99.90
6462;DHT22;3264;42.862;25.098;2023-03-01T09:47:00;5.90;99.90
6462;DHT22;3264;42.862;25.098;2023-03-01T09:49:30;6.00;99.90
6462;DHT22;3264;42.862;25.098;2023-03-01T09:52:11;6.30;99.90
6462;DHT22;3264;42.862;25.098;2023-03-01T09:54:41;6.50;99.90
6462;DHT22;3264;42.862;25.098;2023-03-01T09:57:19;6.30;99.90
6462;DHT22;3264;42.862;25.098;2023-03-01T10:00:13;6.40;99.90
6462;DHT22;3264;42.862;25.098;2023-03-01T10:02:45;6.40;99.90
6462;DHT22;3264;42.862;25.098;2023-03-01T10:08:26;6.00;99.90
6462;DHT22;3264;42.862;25.098;2023-03-01T10:10:59;6.00;99.90
6462;DHT22;3264;42.862;25.098;2023-03-01T10:13:33;6.20;99.90
6462;DHT22;3264;42.862;25.098;2023-03-01T10:16:10;6.30;99.90
6462;DHT22;3264;42.862;25.098;2023-03-01T10:18:41;6.40;99.90
6462;DHT22;3264;42.862;25.098;2023-03-01T10:21:15;6.30;99.90
6462;DHT22;3264;42.862;25.098;2023-03-01T10:23:50;6.00;99.90
6462;DHT22;3264;42.862;25.098;2023-03-01T10:26:38;6.10;99.90
6462;DHT22;3264;42.862;25.098;2023-03-01T10:29:10;6.30;99.90
6462;DHT22;3264;42.862;25.098;2023-03-01T10:31:43;6.20;99.90
6462;DHT22;3264;42.862;25.098;2023-03-01T10:34:14;6.20;99.90
6462;DHT22;3264;42.862;25.098;2023-03-01T10:36:44;6.10;99.90
6462;DHT22;3264;42.862;25.098;2023-03-01T10:39:17;6.20;99.90
6462;DHT22;3264;42.862;25.098;2023-03-01T10:41:57;6.30;99.90
6462;DHT22;3264;42.862;25.098;2023-03-01T10:44:42;6.20;99.90
6462;DHT22;3264;42.862;25.098;2023-03-01T10:47:18;6.30;99.90
6462;DHT22;3264;42.862;25.098;2023-03-01T10:49:59;6.40;99.90
6462;DHT22;3264;42.862;25.098;2023-03-01T10:52:35;6.50;99.90
6462;DHT22;3264;42.862;25.098;2023-03-01T10:55:27;6.50;99.90
6462;DHT22;3264;42.862;25.098;2023-03-01T10:58:08;6.50;99.90
6462;DHT22;3264;42.862;25.098;2023-03-01T11:00:47;6.70;99.90
6462;DHT22;3264;42.862;25.098;2023-03-01T11:03:21;7.00;99.90
6462;DHT22;3264;42.862;25.098;2023-03-01T11:05:57;6.90;99.90
6462;DHT22;3264;42.862;25.098;2023-03-01T11:08:48;6.80;99.90
6462;DHT22;3264;42.862;25.098;2023-03-01T11:11:29;6.90;99.90
6462;DHT22;3264;42.862;25.098;2023-03-01T11:14:01;6.90;99.90
6462;DHT22;3264;42.862;25.098;2023-03-01T11:16:36;7.00;99.90
6462;DHT22;3264;42.862;25.098;2023-03-01T11:19:17;7.10;99.90
6462;DHT22;3264;42.862;25.098;2023-03-01T11:22:00;7.10;99.90
6462;DHT22;3264;42.862;25.098;2023-03-01T11:24:36;7.00;99.90
6462;DHT22;3264;42.862;25.098;2023-03-01T11:27:16;6.80;99.90
6462;DHT22;3264;42.862;25.098;2023-03-01T11:29:49;6.80;99.90
6462;DHT22;3264;42.862;25.098;2023-03-01T11:32:22;6.70;99.90
6462;DHT22;3264;42.862;25.098;2023-03-01T11:34:55;6.70;99.90
6462;DHT22;3264;42.862;25.098;2023-03-01T11:37:34;6.70;99.90
6462;DHT22;3264;42.862;25.098;2023-03-01T11:40:13;6.70;99.90
6462;DHT22;3264;42.862;25.098;2023-03-01T11:42:51;6.80;99.90
6462;DHT22;3264;42.862;25.098;2023-03-01T11:45:23;6.90;99.90
6462;DHT22;3264;42.862;25.098;2023-03-01T11:48:11;6.90;99.90
6462;DHT22;3264;42.862;25.098;2023-03-01T11:50:48;6.90;99.90
6462;DHT22;3264;42.862;25.098;2023-03-01T11:53:39;6.80;99.90
6462;DHT22;3264;42.862;25.098;2023-03-01T11:56:24;6.60;99.90
6462;DHT22;3264;42.862;25.098;2023-03-01T12:02:00;6.60;99.90
6462;DHT22;3264;42.862;25.098;2023-03-01T12:04:57;6.70;99.90
6462;DHT22;3264;42.862;25.098;2023-03-01T12:07:34;6.90;99.90
6462;DHT22;3264;42.862;25.098;2023-03-01T12:10:20;6.80;99.90
6462;DHT22;3264;42.862;25.098;2023-03-01T12:13:04;6.70;99.90
6462;DHT22;3264;42.862;25.098;2023-03-01T12:16:05;6.70;99.90
6462;DHT22;3264;42.862;25.098;2023-03-01T12:21:51;6.70;99.90
6462;DHT22;3264;42.862;25.098;2023-03-01T12:30:50;6.70;99.90
6462;DHT22;3264;42.862;25.098;2023-03-01T12:33:32;6.80;99.90
6462;DHT22;3264;42.862;25.098;2023-03-01T12:36:28;6.70;99.90
6462;DHT22;3264;42.862;25.098;2023-03-01T12:39:16;6.60;99.90
6462;DHT22;3264;42.862;25.098;2023-03-01T12:41:56;6.50;99.90
6462;DHT22;3264;42.862;25.098;2023-03-01T12:44:41;6.50;99.90
6462;DHT22;3264;42.862;25.098;2023-03-01T12:47:40;6.60;99.90
6462;DHT22;3264;42.862;25.098;2023-03-01T12:50:18;6.70;99.90
6462;DHT22;3264;42.862;25.098;2023-03-01T12:52:51;6.70;99.90
6462;DHT22;3264;42.862;25.098;2023-03-01T12:55:27;6.90;99.90
6462;DHT22;3264;42.862;25.098;2023-03-01T12:58:02;6.90;99.90
6462;DHT22;3264;42.862;25.098;2023-03-01T13:00:38;6.70;99.90
6462;DHT22;3264;42.862;25.098;2023-03-01T13:03:18;6.70;99.90
6462;DHT22;3264;42.862;25.098;2023-03-01T13:06:02;6.50;99.90
6462;DHT22;3264;42.862;25.098;2023-03-01T13:08:39;6.60;99.90
6462;DHT22;3264;42.862;25.098;2023-03-01T13:11:17;6.50;99.90
6462;DHT22;3264;42.862;25.098;2023-03-01T13:13:46;6.70;99.90
6462;DHT22;3264;42.862;25.098;2023-03-01T13:16:40;6.80;99.90
6462;DHT22;3264;42.862;25.098;2023-03-01T13:19:17;6.60;99.90
6462;DHT22;3264;42.862;25.098;2023-03-01T13:21:50;6.60;99.90
6462;DHT22;3264;42.862;25.098;2023-03-01T13:24:29;6.70;99.90
6462;DHT22;3264;42.862;25.098;2023-03-01T13:27:23;6.60;99.90
6462;DHT22;3264;42.862;25.098;2023-03-01T13:29:58;6.60;99.90
6462;DHT22;3264;42.862;25.098;2023-03-01T13:32:33;6.70;99.90
6462;DHT22;3264;42.862;25.098;2023-03-01T13:38:46;6.70;99.90
6462;DHT22;3264;42.862;25.098;2023-03-01T13:41:17;6.60;99.90
6462;DHT22;3264;42.862;25.098;2023-03-01T13:43:46;6.60;99.90
6462;DHT22;3264;42.862;25.098;2023-03-01T13:46:20;6.60;99.90
6462;DHT22;3264;42.862;25.098;2023-03-01T13:48:52;6.50;99.90
6462;DHT22;3264;42.862;25.098;2023-03-01T13:51:24;6.60;99.90
6462;DHT22;3264;42.862;25.098;2023-03-01T13:53:56;6.50;99.90
6462;DHT22;3264;42.862;25.098;2023-03-01T13:56:28;6.60;99.90
6462;DHT22;3264;42.862;25.098;2023-03-01T13:59:04;6.60;99.90
6462;DHT22;3264;42.862;25.098;2023-03-01T14:01:35;6.60;99.90
6462;DHT22;3264;42.862;25.098;2023-03-01T14:04:20;6.50;99.90
6462;DHT22;3264;42.862;25.098;2023-03-01T14:06:50;6.50;99.90
6462;DHT22;3264;42.862;25.098;2023-03-01T14:09:24;6.40;99.90
6462;DHT22;3264;42.862;25.098;2023-03-01T14:12:16;6.40;99.90
6462;DHT22;3264;42.862;25.098;2023-03-01T14:14:53;6.40;99.90
6462;DHT22;3264;42.862;25.098;2023-03-01T14:17:36;6.30;99.90
6462;DHT22;3264;42.862;25.098;2023-03-01T14:20:13;6.40;99.90
6462;DHT22;3264;42.862;25.098;2023-03-01T14:22:43;6.30;99.90
6462;DHT22;3264;42.862;25.098;2023-03-01T14:25:33;6.40;99.90
6462;DHT22;3264;42.862;25.098;2023-03-01T14:28:12;6.40;99.90
6462;DHT22;3264;42.862;25.098;2023-03-01T14:30:45;6.40;99.90
6462;DHT22;3264;42.862;25.098;2023-03-01T14:33:23;6.50;99.90
6462;DHT22;3264;42.862;25.098;2023-03-01T14:35:58;6.40;99.90
6462;DHT22;3264;42.862;25.098;2023-03-01T14:38:33;6.30;99.90
6462;DHT22;3264;42.862;25.098;2023-03-01T14:41:09;6.40;99.90
6462;DHT22;3264;42.862;25.098;2023-03-01T14:43:41;6.30;99.90
6462;DHT22;3264;42.862;25.098;2023-03-01T14:46:19;6.30;99.90
6462;DHT22;3264;42.862;25.098;2023-03-01T14:48:50;6.30;99.90
6462;DHT22;3264;42.862;25.098;2023-03-01T14:51:20;6.40;99.90
6462;DHT22;3264;42.862;25.098;2023-03-01T14:53:49;6.40;99.90
6462;DHT22;3264;42.862;25.098;2023-03-01T14:56:20;6.20;99.90
6462;DHT22;3264;42.862;25.098;2023-03-01T14:58:52;6.20;99.90
6462;DHT22;3264;42.862;25.098;2023-03-01T15:01:21;6.10;99.90
6462;DHT22;3264;42.862;25.098;2023-03-01T15:03:50;6.20;99.90
6462;DHT22;3264;42.862;25.098;2023-03-01T15:06:21;6.20;99.90
6462;DHT22;3264;42.862;25.098;2023-03-01T15:08:52;6.10;99.90
6462;DHT22;3264;42.862;25.098;2023-03-01T15:11:27;6.10;99.90
6462;DHT22;3264;42.862;25.098;2023-03-01T15:13:55;6.00;99.90
6462;DHT22;3264;42.862;25.098;2023-03-01T15:16:27;6.00;99.90
6462;DHT22;3264;42.862;25.098;2023-03-01T15:18:57;6.00;99.90
6462;DHT22;3264;42.862;25.098;2023-03-01T15:21:30;6.10;99.90
6462;DHT22;3264;42.862;25.098;2023-03-01T15:24:04;6.00;99.90
6462;DHT22;3264;42.862;25.098;2023-03-01T15:26:41;5.90;99.90
6462;DHT22;3264;42.862;25.098;2023-03-01T15:29:16;5.90;99.90
6462;DHT22;3264;42.862;25.098;2023-03-01T15:31:55;5.90;99.90
6462;DHT22;3264;42.862;25.098;2023-03-01T15:34:25;5.80;99.90
6462;DHT22;3264;42.862;25.098;2023-03-01T15:36:57;5.80;99.90
6462;DHT22;3264;42.862;25.098;2023-03-01T15:39:39;5.70;99.90
6462;DHT22;3264;42.862;25.098;2023-03-01T15:42:13;5.80;99.90
6462;DHT22;3264;42.862;25.098;2023-03-01T15:44:44;5.70;99.90
6462;DHT22;3264;42.862;25.098;2023-03-01T15:47:34;5.70;99.90
6462;DHT22;3264;42.862;25.098;2023-03-01T15:50:11;5.80;99.90
6462;DHT22;3264;42.862;25.098;2023-03-01T15:52:42;5.80;99.90
6462;DHT22;3264;42.862;25.098;2023-03-01T15:55:16;5.80;99.90
6462;DHT22;3264;42.862;25.098;2023-03-01T15:57:48;5.70;99.90
6462;DHT22;3264;42.862;25.098;2023-03-01T16:00:17;5.70;99.90
6462;DHT22;3264;42.862;25.098;2023-03-01T16:02:46;5.70;99.90
6462;DHT22;3264;42.862;25.098;2023-03-01T16:05:20;5.70;99.90
6462;DHT22;3264;42.862;25.098;2023-03-01T16:07:50;5.70;99.90
6462;DHT22;3264;42.862;25.098;2023-03-01T16:10:19;5.70;99.90
6462;DHT22;3264;42.862;25.098;2023-03-01T16:12:49;5.80;99.90
6462;DHT22;3264;42.862;25.098;2023-03-01T16:15:21;5.80;99.90
6462;DHT22;3264;42.862;25.098;2023-03-01T16:17:51;5.80;99.90
6462;DHT22;3264;42.862;25.098;2023-03-01T16:20:22;5.80;99.90
6462;DHT22;3264;42.862;25.098;2023-03-01T16:22:51;5.80;99.90
6462;DHT22;3264;42.862;25.098;2023-03-01T16:25:22;5.80;99.90
6462;DHT22;3264;42.862;25.098;2023-03-01T16:27:53;5.70;99.90
6462;DHT22;3264;42.862;25.098;2023-03-01T16:30:23;5.60;99.90
6462;DHT22;3264;42.862;25.098;2023-03-01T16:32:52;5.60;99.90
6462;DHT22;3264;42.862;25.098;2023-03-01T16:35:22;5.70;99.90
6462;DHT22;3264;42.862;25.098;2023-03-01T16:37:51;5.70;99.90
6462;DHT22;3264;42.862;25.098;2023-03-01T16:40:24;5.70;99.90
6462;DHT22;3264;42.862;25.098;2023-03-01T16:42:56;5.70;99.90
6462;DHT22;3264;42.862;25.098;2023-03-01T16:45:28;5.80;99.90
6462;DHT22;3264;42.862;25.098;2023-03-01T16:48:01;5.80;99.90
6462;DHT22;3264;42.862;25.098;2023-03-01T16:50:30;5.70;99.90
6462;DHT22;3264;42.862;25.098;2023-03-01T16:52:59;5.70;99.90
6462;DHT22;3264;42.862;25.098;2023-03-01T16:55:29;5.80;99.90
6462;DHT22;3264;42.862;25.098;2023-03-01T16:57:59;5.70;99.90
6462;DHT22;3264;42.862;25.098;2023-03-01T17:00:31;5.70;99.90